Etusivu
METAR-TAF:

METAR-TAF

Lentoasemat :

Kuwait, Kuwait

Kuwaitin kansainvälinen lentoasema

Leveyspiiri: 29-13N, Pituuspiiri: 047-59E, korkeus merenpinnasta: 55 m

Tämänhetkinen sää

Tämä raportti tehtiin 38 minuuttia sitten, kello 15.00 UTC
Tuuli 18 kn pohjoisesta
Lämpötila 42°C
Kosteus 10%
Ilmanpaine 999 hPa
Näkyvyys: 4000 m
selkeää
pölymyrsky

METAR: OKBK 251500Z 35018KT 4000 BLDU SKC 42/04 Q0999 NOSIG

Aika: 18:38 (15:38 UTC)


TAF: puuttuu

Säähavainnot ja -ennusteet yli 4000 lentoasemalta (METAR- ja TAF-raportit).

Käytössä olevat sääasemat on merkitty karttaan keltaisilla ja punaisilla pisteillä.

Aseta hiiri pisteen päälle nähdäksesi sääaseman nimen.

Klikkaa sitten nähdäksesi säähavainnot ja -ennusteet.

Kartan vaihtaminen: klikkaa mustalla rastilla varustettuja vihreitä pisteitä, niin voit zoomata sisään; viivalla varustettua vihreää pistettä, niin voit zoomata ulos tai vihreitä nuolia, niin pääset viereisille kartoille.


METAR-TAF: